F/V Fleur Des Vagues — FPEJ — position and weather

sailwx.info

Track history (hours):
 
Tides and Currents Weather Stations Pressure Air Temp Water Temp Dewpoint Dewpoint Depression Visibility Wind Speed Wind Dir Waves Ship Positions

F/V Fleur Des Vagues

Last reported at 2015-Jan-28 09:14 UTC. Time now 2015-Feb-01 10:16 UTC.
Position N 46°30' W 001°47'.

Length 16 m.

Type: Fishing. MMSI: 227893000.

Date/timePositionNaut miles runAvg speedWind from/ knotsBaromVisibWave heightAir tempDewpointWater temp
2015-Jan-28 09:14N 46°30' W 001°47'0 0.0
2015-Jan-28 08:27N 46°30' W 001°47'0 0.0
2015-Jan-28 07:33N 46°30' W 001°47'0 0.4
2015-Jan-28 06:33N 46°30' W 001°48'8 8.0
2015-Jan-28 05:33N 46°22' W 001°49'8 8.4
2015-Jan-28 04:33N 46°13' W 001°50'4 4.3
2015-Jan-28 03:33N 46°09' W 001°52'1 1.2
2015-Jan-28 02:33N 46°10' W 001°53'0 0.2
2015-Jan-28 01:33N 46°10' W 001°52'2 1.8
2015-Jan-28 00:33N 46°09' W 001°51'1 1.2
2015-Jan-27 23:24N 46°10' W 001°52'0 0.5
2015-Jan-27 22:33N 46°10' W 001°51'2 1.8
2015-Jan-27 21:33N 46°08' W 001°50'0 0.0
2015-Jan-27 20:33N 46°08' W 001°50'0 0.0
2015-Jan-27 19:33N 46°08' W 001°50'0 0.0
2015-Jan-27 18:33N 46°08' W 001°50'0 0.0
2015-Jan-27 17:33N 46°08' W 001°50'0 0.0
2015-Jan-27 16:33N 46°08' W 001°50'0 0.0
2015-Jan-27 15:32N 46°08' W 001°50'1 0.6
2015-Jan-27 13:15N 46°09' W 001°51'1 0.6
2015-Jan-27 11:32N 46°10' W 001°52'1 0.3
2015-Jan-27 09:08N 46°10' W 001°53'1 2.0
2015-Jan-27 08:29N 46°09' W 001°52'1 1.6
2015-Jan-27 07:33N 46°10' W 001°52'2 1.9
2015-Jan-27 06:33N 46°09' W 001°50'2 1.7
2015-Jan-27 05:30N 46°10' W 001°52'1 0.5
2015-Jan-27 04:33N 46°10' W 001°51'1 0.9
2015-Jan-27 03:34N 46°09' W 001°50'9 9.0
2015-Jan-27 02:34N 46°18' W 001°50'9 9.1
2015-Jan-27 01:33N 46°27' W 001°47'3 2.5
2015-Jan-27 00:33N 46°30' W 001°47'0 0.0
2015-Jan-26 23:33N 46°30' W 001°47'0 0.0
2015-Jan-26 22:33N 46°30' W 001°47'0 0.0
2015-Jan-26 21:33N 46°30' W 001°47'0 0.0
2015-Jan-26 20:33N 46°30' W 001°47'0 0.0
2015-Jan-26 19:33N 46°30' W 001°47'0 0.0
2015-Jan-26 18:33N 46°30' W 001°47'0 0.0
2015-Jan-26 17:33N 46°30' W 001°47'0 0.0
2015-Jan-26 16:33N 46°30' W 001°47'0 0.0
2015-Jan-26 15:33N 46°30' W 001°47'0 0.0
2015-Jan-26 14:33N 46°30' W 001°47'0 0.0
2015-Jan-26 13:33N 46°30' W 001°47'0 0.0
2015-Jan-26 12:33N 46°30' W 001°47'8 8.3
2015-Jan-26 11:33N 46°22' W 001°49'9 9.0
2015-Jan-26 10:33N 46°13' W 001°51'3 1.0
2015-Jan-26 07:12N 46°09' W 001°52'1 1.8
2015-Jan-26 06:32N 46°09' W 001°51'1 0.9
2015-Jan-26 05:33N 46°09' W 001°52'0 0.5
2015-Jan-26 04:33N 46°10' W 001°51'0 0.4
2015-Jan-26 03:33N 46°09' W 001°51'2 1.7
2015-Jan-26 02:31N 46°11' W 001°52'2 1.9
2015-Jan-26 01:33N 46°09' W 001°51'1 0.9
2015-Jan-26 00:21N 46°10' W 001°52'0 0.1
2015-Jan-25 20:33N 46°10' W 001°52'0 0.0
2015-Jan-25 19:33N 46°10' W 001°52'0 0.0
2015-Jan-25 18:33N 46°10' W 001°52'0 0.1
2015-Jan-25 17:33N 46°10' W 001°52'0 0.1
2015-Jan-25 16:33N 46°10' W 001°52'0 0.0
2015-Jan-25 15:32N 46°10' W 001°52'0 0.0
2015-Jan-25 14:31N 46°10' W 001°52'1 0.9
2015-Jan-25 13:24N 46°09' W 001°52'3 3.2
2015-Jan-25 12:34N 46°07' W 001°49'1 1.1
2015-Jan-25 11:33N 46°08' W 001°51'0 0.4
2015-Jan-25 10:15N 46°08' W 001°51'1 1.6
2015-Jan-25 09:33N 46°07' W 001°50'2 1.7
2015-Jan-25 08:33N 46°09' W 001°51'2 1.2
2015-Jan-25 07:18N 46°08' W 001°49'2 2.1
2015-Jan-25 06:30N 46°09' W 001°51'2 1.9
2015-Jan-25 05:29N 46°11' W 001°52'1 1.3
2015-Jan-25 04:33N 46°10' W 001°51'2 2.1
2015-Jan-25 03:33N 46°12' W 001°50'9 8.8
2015-Jan-25 02:33N 46°20' W 001°48'9 8.9
2015-Jan-25 01:33N 46°29' W 001°47'1 0.6
2015-Jan-25 00:33N 46°30' W 001°47'0 0.0
2015-Jan-24 23:33N 46°30' W 001°47'0 0.0
2015-Jan-24 22:33N 46°30' W 001°47'0 0.0
2015-Jan-24 21:33N 46°30' W 001°47'0 0.0
2015-Jan-24 20:33N 46°30' W 001°47'0 0.0
2015-Jan-24 19:33N 46°30' W 001°47'0 0.0
2015-Jan-24 18:33N 46°30' W 001°47'0 0.0
2015-Jan-24 17:33N 46°30' W 001°47'0 0.0
2015-Jan-24 16:33N 46°30' W 001°47'0 0.0
2015-Jan-24 15:33N 46°30' W 001°47'0 0.0
2015-Jan-24 14:33N 46°30' W 001°47'0 0.5
2015-Jan-24 13:33N 46°29' W 001°48'4 4.3
2015-Jan-24 12:33N 46°25' W 001°47'7 7.4
2015-Jan-24 11:33N 46°18' W 001°48'10 5.1
2015-Jan-24 09:33N 46°08' W 001°50'4 3.3
2015-Jan-24 08:28N 46°11' W 001°53'3 3.4
2015-Jan-24 07:28N 46°09' W 001°49'2 2.0
2015-Jan-24 06:32N 46°10' W 001°51'1 0.7
2015-Jan-24 05:34N 46°09' W 001°51'2 1.7
2015-Jan-24 04:33N 46°08' W 001°50'1 1.0
2015-Jan-24 03:30N 46°09' W 001°51'0 0.5
2015-Jan-24 02:33N 46°09' W 001°51'1 1.2
2015-Jan-24 01:32N 46°08' W 001°51'2 2.0
2015-Jan-24 00:22N 46°10' W 001°53'0 0.0
2015-Jan-23 19:33N 46°10' W 001°53'0 0.0
2015-Jan-23 16:21N 46°10' W 001°53'0 0.0
2015-Jan-23 15:32N 46°10' W 001°53'0 0.1
2015-Jan-23 14:33N 46°10' W 001°53'2 1.8
2015-Jan-23 13:33N 46°08' W 001°51'2 1.9
2015-Jan-23 12:25N 46°10' W 001°52'1 0.1
2015-Jan-23 08:08N 46°10' W 001°52'1 0.6
2015-Jan-23 06:27N 46°10' W 001°53'0 0.4
2015-Jan-23 05:33N 46°09' W 001°52'2 1.6
2015-Jan-23 04:33N 46°08' W 001°51'2 1.8
2015-Jan-23 03:31N 46°10' W 001°52'8 8.8
2015-Jan-23 02:33N 46°18' W 001°49'9 9.1
2015-Jan-23 01:33N 46°27' W 001°48'3 2.6
2015-Jan-23 00:33N 46°30' W 001°47'0 0.0
2015-Jan-22 23:33N 46°30' W 001°47'0 0.0
2015-Jan-22 22:33N 46°30' W 001°47'0 0.0
2015-Jan-22 21:33N 46°30' W 001°47'0 0.0
2015-Jan-22 20:33N 46°30' W 001°47'0 0.0
2015-Jan-22 19:33N 46°30' W 001°47'0 0.0
2015-Jan-22 18:33N 46°30' W 001°47'4 4.5
2015-Jan-22 17:33N 46°25' W 001°48'9 9.2
2015-Jan-22 16:33N 46°16' W 001°49'7 5.5
2015-Jan-22 15:15N 46°09' W 001°52'1 0.3
2015-Jan-22 13:31N 46°10' W 001°52'2 0.2
2015-Jan-22 05:25N 46°11' W 001°53'1 0.9
2015-Jan-22 04:12N 46°10' W 001°52'1 1.2
2015-Jan-22 03:31N 46°10' W 001°51'1 1.0
2015-Jan-22 02:33N 46°10' W 001°52'9 8.7
2015-Jan-22 01:33N 46°19' W 001°50'9 8.8
2015-Jan-22 00:33N 46°28' W 001°47'2 2.3
2015-Jan-21 23:33N 46°30' W 001°47'0 0.0
2015-Jan-21 22:50N 46°30' W 001°47'0 0.0
2015-Jan-21 22:46N 46°30' W 001°47'0 0.0
2015-Jan-21 22:33N 46°30' W 001°47'0 0.0
2015-Jan-21 21:33N 46°30' W 001°47'0 0.0
2015-Jan-21 20:33N 46°30' W 001°47'0 0.0
2015-Jan-21 19:33N 46°30' W 001°47'0 0.0
2015-Jan-21 18:33N 46°30' W 001°47'0 0.0
2015-Jan-21 15:33N 46°30' W 001°47'0 0.0
2015-Jan-21 14:33N 46°30' W 001°47'0 0.0
2015-Jan-21 13:33N 46°30' W 001°47'0 0.0
2015-Jan-21 12:33N 46°30' W 001°47'8 8.5
2015-Jan-21 11:33N 46°22' W 001°49'1010.3
2015-Jan-21 10:32N 46°11' W 001°52'2 1.3
2015-Jan-21 09:12N 46°11' W 001°54'4 1.5
2015-Jan-21 06:21N 46°08' W 001°50'2 1.0
2015-Jan-21 04:26N 46°06' W 001°49'2 1.8
2015-Jan-21 03:12N 46°08' W 001°51'1 1.7
2015-Jan-21 02:33N 46°07' W 001°50'3 1.8
2015-Jan-21 01:08N 46°05' W 001°48'3 0.3
2015-Jan-20 14:11N 46°08' W 001°51'3 1.8
2015-Jan-20 12:33N 46°11' W 001°51'8 7.7
2015-Jan-20 11:33N 46°18' W 001°49'8 7.7
2015-Jan-20 10:33N 46°26' W 001°47'4 3.8
2015-Jan-20 09:33N 46°30' W 001°47'0 0.0
2015-Jan-20 08:33N 46°30' W 001°47'0 0.0
2015-Jan-20 07:33N 46°30' W 001°47'  
Track history (hours):
 
Tides and Currents Weather Stations Pressure Air Temp Water Temp Dewpoint Dewpoint Depression Visibility Wind Speed Wind Dir Waves Ship Positions

F/V Fleur Des Vagues

Last reported at 2015-Jan-28 09:14 UTC. Time now 2015-Feb-01 10:16 UTC.
Position N 46°30' W 001°47'.

Length 16 m.

Type: Fishing. MMSI: 227893000.

Date/timePositionNaut miles runAvg speedWind from/ knotsBaromVisibWave heightAir tempDewpointWater temp
2015-Jan-28 09:14N 46°30' W 001°47'0 0.0
2015-Jan-28 08:27N 46°30' W 001°47'0 0.0
2015-Jan-28 07:33N 46°30' W 001°47'0 0.4
2015-Jan-28 06:33N 46°30' W 001°48'8 8.0
2015-Jan-28 05:33N 46°22' W 001°49'8 8.4
2015-Jan-28 04:33N 46°13' W 001°50'4 4.3
2015-Jan-28 03:33N 46°09' W 001°52'1 1.2
2015-Jan-28 02:33N 46°10' W 001°53'0 0.2
2015-Jan-28 01:33N 46°10' W 001°52'2 1.8
2015-Jan-28 00:33N 46°09' W 001°51'1 1.2
2015-Jan-27 23:24N 46°10' W 001°52'0 0.5
2015-Jan-27 22:33N 46°10' W 001°51'2 1.8
2015-Jan-27 21:33N 46°08' W 001°50'0 0.0
2015-Jan-27 20:33N 46°08' W 001°50'0 0.0
2015-Jan-27 19:33N 46°08' W 001°50'0 0.0
2015-Jan-27 18:33N 46°08' W 001°50'0 0.0
2015-Jan-27 17:33N 46°08' W 001°50'0 0.0
2015-Jan-27 16:33N 46°08' W 001°50'0 0.0
2015-Jan-27 15:32N 46°08' W 001°50'1 0.6
2015-Jan-27 13:15N 46°09' W 001°51'1 0.6
2015-Jan-27 11:32N 46°10' W 001°52'1 0.3
2015-Jan-27 09:08N 46°10' W 001°53'1 2.0
2015-Jan-27 08:29N 46°09' W 001°52'1 1.6
2015-Jan-27 07:33N 46°10' W 001°52'2 1.9
2015-Jan-27 06:33N 46°09' W 001°50'2 1.7
2015-Jan-27 05:30N 46°10' W 001°52'1 0.5
2015-Jan-27 04:33N 46°10' W 001°51'1 0.9
2015-Jan-27 03:34N 46°09' W 001°50'9 9.0
2015-Jan-27 02:34N 46°18' W 001°50'9 9.1
2015-Jan-27 01:33N 46°27' W 001°47'3 2.5
2015-Jan-27 00:33N 46°30' W 001°47'0 0.0
2015-Jan-26 23:33N 46°30' W 001°47'0 0.0
2015-Jan-26 22:33N 46°30' W 001°47'0 0.0
2015-Jan-26 21:33N 46°30' W 001°47'0 0.0
2015-Jan-26 20:33N 46°30' W 001°47'0 0.0
2015-Jan-26 19:33N 46°30' W 001°47'0 0.0
2015-Jan-26 18:33N 46°30' W 001°47'0 0.0
2015-Jan-26 17:33N 46°30' W 001°47'0 0.0
2015-Jan-26 16:33N 46°30' W 001°47'0 0.0
2015-Jan-26 15:33N 46°30' W 001°47'0 0.0
2015-Jan-26 14:33N 46°30' W 001°47'0 0.0
2015-Jan-26 13:33N 46°30' W 001°47'0 0.0
2015-Jan-26 12:33N 46°30' W 001°47'8 8.3
2015-Jan-26 11:33N 46°22' W 001°49'9 9.0
2015-Jan-26 10:33N 46°13' W 001°51'3 1.0
2015-Jan-26 07:12N 46°09' W 001°52'1 1.8
2015-Jan-26 06:32N 46°09' W 001°51'1 0.9
2015-Jan-26 05:33N 46°09' W 001°52'0 0.5
2015-Jan-26 04:33N 46°10' W 001°51'0 0.4
2015-Jan-26 03:33N 46°09' W 001°51'2 1.7
2015-Jan-26 02:31N 46°11' W 001°52'2 1.9
2015-Jan-26 01:33N 46°09' W 001°51'1 0.9
2015-Jan-26 00:21N 46°10' W 001°52'0 0.1
2015-Jan-25 20:33N 46°10' W 001°52'0 0.0
2015-Jan-25 19:33N 46°10' W 001°52'0 0.0
2015-Jan-25 18:33N 46°10' W 001°52'0 0.1
2015-Jan-25 17:33N 46°10' W 001°52'0 0.1
2015-Jan-25 16:33N 46°10' W 001°52'0 0.0
2015-Jan-25 15:32N 46°10' W 001°52'0 0.0
2015-Jan-25 14:31N 46°10' W 001°52'1 0.9
2015-Jan-25 13:24N 46°09' W 001°52'3 3.2
2015-Jan-25 12:34N 46°07' W 001°49'1 1.1
2015-Jan-25 11:33N 46°08' W 001°51'0 0.4
2015-Jan-25 10:15N 46°08' W 001°51'1 1.6
2015-Jan-25 09:33N 46°07' W 001°50'2 1.7
2015-Jan-25 08:33N 46°09' W 001°51'2 1.2
2015-Jan-25 07:18N 46°08' W 001°49'2 2.1
2015-Jan-25 06:30N 46°09' W 001°51'2 1.9
2015-Jan-25 05:29N 46°11' W 001°52'1 1.3
2015-Jan-25 04:33N 46°10' W 001°51'2 2.1
2015-Jan-25 03:33N 46°12' W 001°50'9 8.8
2015-Jan-25 02:33N 46°20' W 001°48'9 8.9
2015-Jan-25 01:33N 46°29' W 001°47'1 0.6
2015-Jan-25 00:33N 46°30' W 001°47'0 0.0
2015-Jan-24 23:33N 46°30' W 001°47'0 0.0
2015-Jan-24 22:33N 46°30' W 001°47'0 0.0
2015-Jan-24 21:33N 46°30' W 001°47'0 0.0
2015-Jan-24 20:33N 46°30' W 001°47'0 0.0
2015-Jan-24 19:33N 46°30' W 001°47'0 0.0
2015-Jan-24 18:33N 46°30' W 001°47'0 0.0
2015-Jan-24 17:33N 46°30' W 001°47'0 0.0
2015-Jan-24 16:33N 46°30' W 001°47'0 0.0
2015-Jan-24 15:33N 46°30' W 001°47'0 0.0
2015-Jan-24 14:33N 46°30' W 001°47'0 0.5
2015-Jan-24 13:33N 46°29' W 001°48'4 4.3
2015-Jan-24 12:33N 46°25' W 001°47'7 7.4
2015-Jan-24 11:33N 46°18' W 001°48'10 5.1
2015-Jan-24 09:33N 46°08' W 001°50'4 3.3
2015-Jan-24 08:28N 46°11' W 001°53'3 3.4
2015-Jan-24 07:28N 46°09' W 001°49'2 2.0
2015-Jan-24 06:32N 46°10' W 001°51'1 0.7
2015-Jan-24 05:34N 46°09' W 001°51'2 1.7
2015-Jan-24 04:33N 46°08' W 001°50'1 1.0
2015-Jan-24 03:30N 46°09' W 001°51'0 0.5
2015-Jan-24 02:33N 46°09' W 001°51'1 1.2
2015-Jan-24 01:32N 46°08' W 001°51'2 2.0
2015-Jan-24 00:22N 46°10' W 001°53'0 0.0
2015-Jan-23 19:33N 46°10' W 001°53'0 0.0
2015-Jan-23 16:21N 46°10' W 001°53'0 0.0
2015-Jan-23 15:32N 46°10' W 001°53'0 0.1
2015-Jan-23 14:33N 46°10' W 001°53'2 1.8
2015-Jan-23 13:33N 46°08' W 001°51'2 1.9
2015-Jan-23 12:25N 46°10' W 001°52'1 0.1
2015-Jan-23 08:08N 46°10' W 001°52'1 0.6
2015-Jan-23 06:27N 46°10' W 001°53'0 0.4
2015-Jan-23 05:33N 46°09' W 001°52'2 1.6
2015-Jan-23 04:33N 46°08' W 001°51'2 1.8
2015-Jan-23 03:31N 46°10' W 001°52'8 8.8
2015-Jan-23 02:33N 46°18' W 001°49'9 9.1
2015-Jan-23 01:33N 46°27' W 001°48'3 2.6
2015-Jan-23 00:33N 46°30' W 001°47'0 0.0
2015-Jan-22 23:33N 46°30' W 001°47'0 0.0
2015-Jan-22 22:33N 46°30' W 001°47'0 0.0
2015-Jan-22 21:33N 46°30' W 001°47'0 0.0
2015-Jan-22 20:33N 46°30' W 001°47'0 0.0
2015-Jan-22 19:33N 46°30' W 001°47'0 0.0
2015-Jan-22 18:33N 46°30' W 001°47'4 4.5
2015-Jan-22 17:33N 46°25' W 001°48'9 9.2
2015-Jan-22 16:33N 46°16' W 001°49'7 5.5
2015-Jan-22 15:15N 46°09' W 001°52'1 0.3
2015-Jan-22 13:31N 46°10' W 001°52'2 0.2
2015-Jan-22 05:25N 46°11' W 001°53'1 0.9
2015-Jan-22 04:12N 46°10' W 001°52'1 1.2
2015-Jan-22 03:31N 46°10' W 001°51'1 1.0
2015-Jan-22 02:33N 46°10' W 001°52'9 8.7
2015-Jan-22 01:33N 46°19' W 001°50'9 8.8
2015-Jan-22 00:33N 46°28' W 001°47'2 2.3
2015-Jan-21 23:33N 46°30' W 001°47'0 0.0
2015-Jan-21 22:50N 46°30' W 001°47'0 0.0
2015-Jan-21 22:46N 46°30' W 001°47'0 0.0
2015-Jan-21 22:33N 46°30' W 001°47'0 0.0
2015-Jan-21 21:33N 46°30' W 001°47'0 0.0
2015-Jan-21 20:33N 46°30' W 001°47'0 0.0
2015-Jan-21 19:33N 46°30' W 001°47'0 0.0
2015-Jan-21 18:33N 46°30' W 001°47'0 0.0
2015-Jan-21 15:33N 46°30' W 001°47'0 0.0
2015-Jan-21 14:33N 46°30' W 001°47'0 0.0
2015-Jan-21 13:33N 46°30' W 001°47'0 0.0
2015-Jan-21 12:33N 46°30' W 001°47'8 8.5
2015-Jan-21 11:33N 46°22' W 001°49'1010.3
2015-Jan-21 10:32N 46°11' W 001°52'2 1.3
2015-Jan-21 09:12N 46°11' W 001°54'4 1.5
2015-Jan-21 06:21N 46°08' W 001°50'2 1.0
2015-Jan-21 04:26N 46°06' W 001°49'2 1.8
2015-Jan-21 03:12N 46°08' W 001°51'1 1.7
2015-Jan-21 02:33N 46°07' W 001°50'3 1.8
2015-Jan-21 01:08N 46°05' W 001°48'3 0.3
2015-Jan-20 14:11N 46°08' W 001°51'3 1.8
2015-Jan-20 12:33N 46°11' W 001°51'8 7.7
2015-Jan-20 11:33N 46°18' W 001°49'8 7.7
2015-Jan-20 10:33N 46°26' W 001°47'4 3.8
2015-Jan-20 09:33N 46°30' W 001°47'0 0.0
2015-Jan-20 08:33N 46°30' W 001°47'0 0.0
2015-Jan-20 07:33N 46°30' W 001°47'  

Dump ship's entire track history